Time;durP1;ratioP1;P1;durP2;ratioP2;P2;SDS_P1;SDS_P2;PMS_P1;PMS_P2;Temp;Humidity;BMP_temperature;BMP_pressure;BME280_temperature;BME280_humidity;BME280_pressure;Samples;Min_cycle;Max_cycle;Signal;HPM_P1;HPM_P2
2022/09/29 00:01:52;;;;;;;;;6.00;5.00;;;;;17.52;60.77;97282.25;6143661;28;96986;-64
2022/09/29 00:04:55;;;;;;;;;4.60;4.40;;;;;17.54;60.32;97285.50;6144793;28;97268;-65
2022/09/29 00:07:59;;;;;;;;;4.00;4.00;;;;;17.54;60.42;97280.84;6128747;28;96609;-65
2022/09/29 00:11:07;;;;;;;;;3.20;3.20;;;;;17.51;60.55;97261.56;6162333;28;96918;-64
2022/09/29 00:14:12;;;;;;;;;5.40;5.40;;;;;17.57;60.26;97273.97;6164283;28;96638;-64
2022/09/29 00:17:15;;;;;;;;;4.60;4.00;;;;;17.50;60.55;97279.81;6163551;28;96545;-65
2022/09/29 00:20:19;;;;;;;;;6.00;5.00;;;;;17.46;60.77;97283.47;6130270;28;97083;-66
2022/09/29 00:23:24;;;;;;;;;5.60;5.60;;;;;17.42;60.42;97277.00;6162247;28;97045;-64
2022/09/29 00:26:27;;;;;;;;;6.00;6.00;;;;;17.42;60.85;97282.47;6161949;28;96426;-66
2022/09/29 00:29:32;;;;;;;;;6.00;6.00;;;;;17.39;60.71;97288.53;6160770;28;96314;-64
2022/09/29 00:32:35;;;;;;;;;5.00;5.00;;;;;17.37;60.84;97293.47;6164163;28;96844;-65
2022/09/29 00:35:38;;;;;;;;;5.00;5.00;;;;;17.32;61.12;97289.75;6162143;28;96435;-64
2022/09/29 00:38:43;;;;;;;;;5.60;5.00;;;;;17.33;60.90;97304.97;6163278;28;96519;-66
2022/09/29 00:41:47;;;;;;;;;5.60;5.00;;;;;17.25;61.18;97300.22;6162998;28;96885;-64
2022/09/29 00:45:05;;;;;;;;;5.20;4.80;;;;;17.25;61.08;97308.38;6146299;28;96348;-64
2022/09/29 00:48:16;;;;;;;;;7.00;7.00;;;;;17.26;61.19;97315.47;6163912;28;96768;-64
2022/09/29 00:51:21;;;;;;;;;6.00;6.00;;;;;17.28;60.88;97309.72;6162514;28;97154;-64
2022/09/29 00:54:28;;;;;;;;;6.20;6.00;;;;;17.30;61.26;97304.75;6162492;28;96267;-65
2022/09/29 00:57:37;;;;;;;;;7.00;7.00;;;;;17.31;60.74;97309.09;6145061;28;96259;-66
2022/09/29 01:00:42;;;;;;;;;7.00;6.40;;;;;17.37;60.32;97307.91;6146339;28;96369;-64
2022/09/29 01:03:48;;;;;;;;;8.00;7.75;;;;;17.38;59.72;97312.25;6144630;28;96759;-64
2022/09/29 01:06:55;;;;;;;;;10.00;9.00;;;;;17.40;59.62;97318.16;6144861;28;97479;-66
2022/09/29 01:09:58;;;;;;;;;7.80;7.20;;;;;17.26;59.64;97323.63;6158976;28;97725;-64
2022/09/29 01:13:02;;;;;;;;;9.00;9.00;;;;;17.30;59.49;97335.53;6163194;28;96495;-64
2022/09/29 01:16:07;;;;;;;;;8.00;8.00;;;;;17.28;59.23;97335.03;6162366;28;96434;-64
2022/09/29 01:19:15;;;;;;;;;8.00;7.50;;;;;17.31;59.12;97341.78;6162763;28;96264;-65
2022/09/29 01:22:37;;;;;;;;;9.00;9.00;;;;;17.32;59.13;97343.41;6162724;28;96243;-64
2022/09/29 01:26:10;;;;;;;;;10.00;9.00;;;;;17.30;58.90;97357.31;6144463;28;98494;-66
2022/09/29 01:29:52;;;;;;;;;8.80;8.80;;;;;17.26;59.04;97352.78;6131784;28;98976;-64
2022/09/29 01:33:24;;;;;;;;;8.80;8.80;;;;;17.28;58.69;97359.56;6159505;28;96294;-65
2022/09/29 01:36:39;;;;;;;;;10.00;9.00;;;;;17.25;58.62;97360.13;6142105;28;97398;-65
2022/09/29 01:39:51;;;;;;;;;10.00;10.00;;;;;17.29;58.41;97352.19;6159766;28;96433;-66
2022/09/29 01:43:01;;;;;;;;;10.00;9.00;;;;;17.27;58.50;97352.47;6142942;28;98546;-65
2022/09/29 01:46:09;;;;;;;;;8.00;8.00;;;;;17.00;58.07;97319.78;6160260;28;96337;-65
2022/09/29 01:49:15;;;;;;;;;11.40;10.40;;;;;17.18;58.33;97358.94;6160576;28;97557;-65
2022/09/29 01:52:22;;;;;;;;;11.00;10.00;;;;;17.20;58.16;97360.22;6145608;28;97175;-65
2022/09/29 01:55:30;;;;;;;;;10.00;9.00;;;;;17.24;58.18;97360.47;6165794;28;96679;-65
2022/09/29 01:58:39;;;;;;;;;11.00;10.00;;;;;17.06;58.30;97328.66;6166618;28;96349;-65
2022/09/29 02:01:44;;;;;;;;;12.40;11.00;;;;;17.27;58.10;97363.38;6148039;28;97277;-64
2022/09/29 02:04:54;;;;;;;;;10.50;9.00;;;;;17.19;58.41;97353.19;6165106;28;97422;-65
2022/09/29 02:08:02;;;;;;;;;10.20;9.00;;;;;17.27;58.67;97374.28;6148979;28;96665;-65
2022/09/29 02:11:07;;;;;;;;;11.00;10.00;;;;;17.23;59.40;97367.81;6146645;28;97125;-65
2022/09/29 02:14:14;;;;;;;;;7.60;7.60;;;;;17.20;59.51;97375.78;6166120;28;96345;-66
2022/09/29 02:17:21;;;;;;;;;12.00;11.40;;;;;17.08;59.31;97378.19;6164661;28;97119;-65
2022/09/29 02:20:25;;;;;;;;;11.00;11.00;;;;;17.00;59.03;97376.97;6165752;28;96237;-65
2022/09/29 02:23:29;;;;;;;;;11.60;11.00;;;;;16.85;58.87;97356.28;6148195;28;96300;-65
2022/09/29 02:26:34;;;;;;;;;12.00;11.00;;;;;16.87;58.70;97378.53;6147357;28;96912;-65
2022/09/29 02:29:38;;;;;;;;;11.60;9.60;;;;;16.67;58.76;97364.47;6165285;28;97508;-65
2022/09/29 02:32:41;;;;;;;;;10.50;10.00;;;;;16.68;58.54;97379.69;6166534;28;96292;-65
2022/09/29 02:35:54;;;;;;;;;12.00;11.00;;;;;16.60;58.50;97375.75;6147979;28;99598;-65
2022/09/29 02:39:02;;;;;;;;;10.60;10.60;;;;;16.53;58.55;97379.91;6148311;28;96526;-65
2022/09/29 02:42:17;;;;;;;;;10.60;10.00;;;;;16.46;58.33;97386.53;6156065;28;96646;-65
2022/09/29 02:45:34;;;;;;;;;10.00;10.00;;;;;16.37;58.49;97388.28;6160985;28;96458;-65
2022/09/29 02:49:03;;;;;;;;;11.50;10.00;;;;;16.37;58.29;97388.28;6148096;28;96805;-66
2022/09/29 02:52:19;;;;;;;;;12.00;10.40;;;;;16.40;58.56;97384.19;6164381;28;96265;-64
2022/09/29 02:55:35;;;;;;;;;11.75;11.00;;;;;16.47;58.57;97396.28;6164347;28;96976;-64
2022/09/29 02:58:45;;;;;;;;;15.00;13.00;;;;;16.50;58.31;97394.09;6165222;28;96614;-64
2022/09/29 03:01:52;;;;;;;;;12.40;11.00;;;;;16.50;57.98;97392.19;6144605;28;97774;-65
2022/09/29 03:04:55;;;;;;;;;13.00;13.00;;;;;16.53;58.18;97391.59;6164357;28;96755;-65
2022/09/29 03:08:00;;;;;;;;;12.40;12.00;;;;;16.51;58.21;97388.38;6166877;28;96440;-64
2022/09/29 03:11:03;;;;;;;;;12.00;11.33;;;;;16.44;57.41;97386.03;6149835;28;96561;-65
2022/09/29 03:14:07;;;;;;;;;12.50;11.00;;;;;16.43;57.58;97386.31;6164997;28;96318;-65
2022/09/29 03:17:10;;;;;;;;;9.60;9.20;;;;;16.39;57.17;97383.38;6163104;28;96841;-65
2022/09/29 03:20:14;;;;;;;;;13.40;12.00;;;;;16.39;57.48;97379.84;6164592;28;96248;-65
2022/09/29 03:23:19;;;;;;;;;10.40;9.80;;;;;16.39;57.92;97383.38;6164758;28;97073;-65
2022/09/29 03:26:22;;;;;;;;;12.00;12.00;;;;;16.37;57.93;97384.78;6164335;28;96378;-65
2022/09/29 03:29:26;;;;;;;;;13.00;12.00;;;;;16.35;57.96;97386.97;6146218;28;98498;-65
2022/09/29 03:32:29;;;;;;;;;13.00;12.00;;;;;16.32;58.20;97390.31;6161554;28;97011;-65
2022/09/29 03:35:32;;;;;;;;;14.00;13.00;;;;;16.23;58.51;97381.16;6159793;28;97057;-65
2022/09/29 03:38:38;;;;;;;;;13.00;12.40;;;;;16.26;58.39;97386.84;6144755;28;96611;-65
2022/09/29 03:41:41;;;;;;;;;12.60;11.40;;;;;16.30;58.45;97387.88;6159675;28;97280;-65
2022/09/29 03:44:45;;;;;;;;;15.00;14.00;;;;;16.34;58.50;97388.09;6160873;28;96317;-65
2022/09/29 03:47:48;;;;;;;;;13.00;11.00;;;;;16.32;58.51;97382.16;6163550;28;98370;-65
2022/09/29 03:50:52;;;;;;;;;11.80;9.20;;;;;16.29;58.39;97378.09;6159888;28;96404;-65
2022/09/29 03:53:57;;;;;;;;;14.00;12.50;;;;;16.32;58.38;97382.16;6162874;28;96295;-65
2022/09/29 03:57:01;;;;;;;;;12.00;10.00;;;;;16.33;58.36;97381.84;6164285;28;96437;-65
2022/09/29 04:00:05;;;;;;;;;11.00;10.60;;;;;16.32;58.26;97387.59;6163139;28;96798;-65
2022/09/29 04:03:10;;;;;;;;;10.60;9.60;;;;;16.11;58.67;97365.31;6163830;28;97387;-65
2022/09/29 04:06:14;;;;;;;;;10.20;9.00;;;;;16.16;58.06;97386.19;6167106;28;96811;-65
2022/09/29 04:09:18;;;;;;;;;12.00;10.60;;;;;16.18;58.63;97398.38;6167186;28;96104;-64
2022/09/29 04:12:22;;;;;;;;;9.00;8.00;;;;;16.01;58.62;97363.56;6160794;28;96824;-64
2022/09/29 04:15:26;;;;;;;;;10.50;10.50;;;;;16.14;58.80;97385.66;6152649;28;98744;-64
2022/09/29 04:18:30;;;;;;;;;10.80;10.00;;;;;16.13;58.76;97382.13;6167997;28;96705;-65
2022/09/29 04:21:33;;;;;;;;;9.00;9.00;;;;;16.10;58.76;97381.91;6159338;28;96368;-65
2022/09/29 04:24:38;;;;;;;;;10.50;9.00;;;;;16.07;58.99;97393.38;6160683;28;96207;-64
2022/09/29 04:27:42;;;;;;;;;11.00;10.00;;;;;16.01;58.92;97379.06;6163664;28;96471;-64
2022/09/29 04:30:45;;;;;;;;;10.00;10.00;;;;;16.01;58.94;97388.03;6152379;28;96332;-66
2022/09/29 04:33:48;;;;;;;;;11.00;10.00;;;;;16.00;58.46;97389.13;6151530;28;98572;-69
2022/09/29 04:36:52;;;;;;;;;10.00;9.00;;;;;15.97;58.68;97383.47;6166548;28;97387;-67
2022/09/29 04:39:56;;;;;;;;;9.80;8.00;;;;;15.95;58.77;97389.19;6173155;28;96375;-66
2022/09/29 04:43:00;;;;;;;;;9.40;9.00;;;;;15.95;58.63;97396.53;6168248;28;96495;-67
2022/09/29 04:46:05;;;;;;;;;11.00;10.50;;;;;15.98;58.76;97401.38;6138117;28;97251;-67
2022/09/29 04:49:16;;;;;;;;;8.40;7.60;;;;;16.05;58.70;97399.09;6124744;28;97115;-67
2022/09/29 04:52:24;;;;;;;;;10.40;10.00;;;;;16.07;58.67;97402.34;6124281;28;96533;-67
2022/09/29 04:55:29;;;;;;;;;6.50;6.50;;;;;16.09;58.46;97400.13;6159032;28;96331;-67
2022/09/29 04:58:32;;;;;;;;;10.00;9.00;;;;;16.12;58.23;97407.72;6154175;28;97211;-67
2022/09/29 05:01:35;;;;;;;;;8.50;8.50;;;;;16.16;58.04;97421.53;6161125;28;96323;-67
2022/09/29 05:04:39;;;;;;;;;7.80;7.00;;;;;16.18;57.96;97422.03;6139841;28;96791;-66
2022/09/29 05:07:43;;;;;;;;;10.00;9.00;;;;;16.19;58.02;97432.63;6161282;28;97123;-67
2022/09/29 05:10:50;;;;;;;;;7.00;7.00;;;;;16.23;57.94;97430.13;6143644;28;97097;-68
2022/09/29 05:13:53;;;;;;;;;7.20;7.20;;;;;16.11;57.67;97427.03;6145832;28;96838;-66
2022/09/29 05:16:57;;;;;;;;;9.40;8.40;;;;;16.19;57.87;97435.34;6152987;28;96238;-68
2022/09/29 05:20:00;;;;;;;;;10.40;9.00;;;;;16.18;58.11;97443.78;6169663;28;96459;-68
2022/09/29 05:23:08;;;;;;;;;7.00;6.00;;;;;16.16;58.56;97446.81;6163984;28;97615;-68
2022/09/29 05:26:14;;;;;;;;;11.00;10.00;;;;;16.22;58.57;97453.00;6147947;28;98425;-68
2022/09/29 05:29:17;;;;;;;;;8.00;7.00;;;;;16.22;59.35;97459.25;6160544;28;98057;-67
2022/09/29 05:32:21;;;;;;;;;9.40;8.40;;;;;16.24;58.51;97448.06;6149147;28;98534;-68
2022/09/29 05:35:24;;;;;;;;;10.40;9.40;;;;;16.25;58.32;97447.78;6149320;28;97098;-68
2022/09/29 05:38:28;;;;;;;;;7.00;6.00;;;;;16.26;58.16;97448.56;6149811;28;96462;-68
2022/09/29 05:41:34;;;;;;;;;9.60;9.00;;;;;16.26;58.12;97448.56;6147427;28;96915;-68
2022/09/29 05:44:37;;;;;;;;;7.40;7.00;;;;;16.28;58.19;97460.75;6160991;28;96701;-67
2022/09/29 05:47:44;;;;;;;;;9.40;9.20;;;;;16.29;58.03;97451.50;6143330;28;98491;-68
2022/09/29 05:50:47;;;;;;;;;8.00;8.00;;;;;16.32;58.24;97455.56;6162224;28;96312;-68
2022/09/29 05:53:51;;;;;;;;;7.25;7.00;;;;;16.32;58.14;97452.84;6163057;28;96326;-67
2022/09/29 05:56:56;;;;;;;;;6.80;6.80;;;;;16.35;57.88;97457.69;6161234;28;96838;-68
2022/09/29 05:59:59;;;;;;;;;7.60;6.00;;;;;16.31;57.63;97454.75;6160222;28;97630;-68
2022/09/29 06:03:13;;;;;;;;;7.25;7.25;;;;;16.37;57.42;97461.72;6142827;28;96639;-69
2022/09/29 06:06:21;;;;;;;;;8.00;8.00;;;;;16.35;57.27;97450.34;6169492;28;96417;-68
2022/09/29 06:09:24;;;;;;;;;7.00;7.00;;;;;16.35;57.55;97461.22;6156068;28;98416;-68
2022/09/29 06:12:33;;;;;;;;;9.50;8.50;;;;;16.37;57.96;97459.00;6147285;28;96756;-68
2022/09/29 06:15:37;;;;;;;;;7.20;7.20;;;;;16.45;58.05;97465.72;6144139;28;96992;-68
2022/09/29 06:18:41;;;;;;;;;7.00;6.50;;;;;16.46;58.00;97464.63;6144439;28;98307;-68
2022/09/29 06:21:45;;;;;;;;;7.00;7.00;;;;;16.46;58.15;97468.16;6173401;28;96393;-68
2022/09/29 06:24:48;;;;;;;;;10.00;8.00;;;;;16.41;58.27;97465.50;6179452;28;96401;-68
2022/09/29 06:27:53;;;;;;;;;9.00;8.00;;;;;16.38;58.49;97463.34;6150771;28;96871;-68
2022/09/29 06:30:59;;;;;;;;;8.00;6.20;;;;;16.32;58.43;97467.22;6161722;28;96695;-68
2022/09/29 06:34:04;;;;;;;;;6.40;6.40;;;;;16.31;58.68;97465.63;6152427;28;96864;-69
2022/09/29 06:40:30;;;;;;;;;7.60;6.60;;;;;16.20;58.46;97445.13;6166274;28;96334;-68
2022/09/29 06:43:36;;;;;;;;;6.80;6.40;;;;;16.18;58.82;97450.03;6165866;28;96398;-68
2022/09/29 06:46:39;;;;;;;;;8.00;8.00;;;;;16.18;58.99;97454.66;6154551;28;96652;-69
2022/09/29 06:49:43;;;;;;;;;8.00;7.00;;;;;16.21;58.91;97459.53;6164690;28;96597;-68
2022/09/29 06:52:56;;;;;;;;;7.40;7.00;;;;;16.24;58.56;97462.47;6165660;28;96454;-68
2022/09/29 06:56:08;;;;;;;;;7.40;6.40;;;;;16.26;58.08;97459.47;6166271;28;96461;-68
2022/09/29 06:59:13;;;;;;;;;7.00;6.00;;;;;16.34;58.05;97469.66;6165676;28;96482;-68
2022/09/29 07:02:17;;;;;;;;;7.40;7.00;;;;;16.34;57.53;97470.47;6151971;28;96796;-68
2022/09/29 07:05:20;;;;;;;;;6.60;6.00;;;;;16.42;57.21;97467.09;6165525;28;96445;-68
2022/09/29 07:08:24;;;;;;;;;8.00;7.00;;;;;16.44;57.54;97464.09;6148350;28;97862;-68
2022/09/29 07:11:28;;;;;;;;;6.00;5.00;;;;;16.46;56.68;97470.88;6147285;28;96585;-67
2022/09/29 07:14:32;;;;;;;;;5.00;4.00;;;;;16.55;56.18;97454.69;6165246;28;96246;-68
2022/09/29 07:17:36;;;;;;;;;7.00;7.00;;;;;16.58;56.57;97464.16;6165304;28;96387;-68
2022/09/29 07:20:40;;;;;;;;;5.00;4.00;;;;;16.61;56.25;97474.50;6165172;28;96803;-67
2022/09/29 07:23:44;;;;;;;;;6.40;5.20;;;;;16.63;55.92;97472.28;6165495;28;96460;-69
2022/09/29 07:26:47;;;;;;;;;6.00;6.00;;;;;16.73;55.63;97474.84;6165360;28;96232;-68
2022/09/29 07:29:52;;;;;;;;;5.00;5.00;;;;;16.75;55.31;97478.91;6170853;28;96890;-69
2022/09/29 07:33:05;;;;;;;;;6.00;6.00;;;;;16.76;55.35;97483.22;6151437;28;96756;-69
2022/09/29 07:36:09;;;;;;;;;6.00;6.00;;;;;16.86;55.34;97490.41;6162961;28;96472;-69
2022/09/29 07:39:12;;;;;;;;;4.00;4.00;;;;;16.83;54.24;97486.38;6163250;28;96862;-69
2022/09/29 07:42:17;;;;;;;;;4.40;4.00;;;;;16.88;54.20;97491.75;6163132;28;96542;-69
2022/09/29 07:45:31;;;;;;;;;4.00;3.60;;;;;16.90;53.66;97499.63;6163778;28;96264;-69
2022/09/29 07:48:37;;;;;;;;;5.67;5.00;;;;;16.78;54.72;97502.78;6145605;28;96713;-68
2022/09/29 07:51:42;;;;;;;;;5.40;5.00;;;;;16.89;55.62;97512.44;6162527;28;96862;-69
2022/09/29 07:54:45;;;;;;;;;6.00;5.60;;;;;16.88;54.74;97515.44;6162198;28;97058;-69
2022/09/29 07:57:48;;;;;;;;;6.00;5.00;;;;;16.83;55.58;97513.59;6149819;28;96776;-68
2022/09/29 08:00:56;;;;;;;;;5.25;5.00;;;;;16.85;55.61;97513.31;6162685;28;96252;-69
2022/09/29 08:04:00;;;;;;;;;5.20;5.00;;;;;16.84;55.75;97508.97;6163255;28;96211;-69
2022/09/29 08:07:04;;;;;;;;;7.00;6.00;;;;;16.85;55.65;97514.13;6145799;28;96513;-69
2022/09/29 08:10:08;;;;;;;;;4.00;4.00;;;;;16.91;55.81;97508.63;6164147;28;96657;-69
2022/09/29 08:13:19;;;;;;;;;6.00;5.00;;;;;16.85;55.90;97513.31;6146771;28;96809;-68
2022/09/29 08:16:24;;;;;;;;;6.00;6.00;;;;;16.95;55.89;97523.25;6146684;28;96997;-69
2022/09/29 08:19:28;;;;;;;;;5.00;5.00;;;;;17.01;55.28;97522.84;6164175;28;96907;-67
2022/09/29 08:22:31;;;;;;;;;6.00;5.40;;;;;17.14;54.96;97529.47;6163988;28;96272;-67
2022/09/29 08:25:35;;;;;;;;;6.00;5.00;;;;;17.17;54.94;97531.59;6163574;28;96431;-67
2022/09/29 08:28:39;;;;;;;;;6.00;5.00;;;;;17.19;55.19;97527.47;6164048;28;96489;-68
2022/09/29 08:31:44;;;;;;;;;6.00;5.20;;;;;17.15;55.02;97506.59;6166427;28;96381;-70
2022/09/29 08:34:48;;;;;;;;;6.20;5.80;;;;;17.29;54.00;97526.50;6157567;28;96968;-69
2022/09/29 08:37:54;;;;;;;;;6.40;6.00;;;;;17.36;53.34;97532.38;6155323;28;96258;-69
2022/09/29 08:41:02;;;;;;;;;4.00;4.00;;;;;17.27;53.98;97529.53;6146741;28;96485;-68
2022/09/29 08:44:13;;;;;;;;;4.25;4.00;;;;;17.21;54.70;97532.63;6168743;28;96374;-70
2022/09/29 08:47:43;;;;;;;;;3.20;3.20;;;;;17.05;54.25;97545.69;6164202;28;96561;-68
2022/09/29 08:50:56;;;;;;;;;3.00;3.00;;;;;17.06;53.93;97549.19;6172779;28;96261;-68
2022/09/29 08:54:15;;;;;;;;;2.75;2.75;;;;;17.15;53.37;97559.13;6146744;28;99915;-70
2022/09/29 08:57:23;;;;;;;;;3.00;3.00;;;;;17.25;52.90;97547.28;6163859;28;96248;-70
2022/09/29 09:00:39;;;;;;;;;3.00;3.00;;;;;17.21;53.48;97554.41;6162550;28;96405;-69
2022/09/29 09:04:22;;;;;;;;;2.00;2.00;;;;;17.37;54.16;97552.25;6163894;28;96537;-68
2022/09/29 09:07:35;;;;;;;;;3.00;3.00;;;;;17.51;53.96;97545.72;6132821;28;96870;-69
2022/09/29 09:10:46;;;;;;;;;4.00;4.00;;;;;17.62;54.04;97530.84;6167678;28;96998;-69
2022/09/29 09:14:06;;;;;;;;;4.00;4.00;;;;;17.97;51.74;97553.13;6150949;28;98780;-68
2022/09/29 09:17:22;;;;;;;;;3.00;3.00;;;;;18.02;51.68;97542.94;6162728;28;96340;-68
2022/09/29 09:20:35;;;;;;;;;5.00;4.00;;;;;18.06;51.35;97540.41;6150842;28;96197;-70
2022/09/29 09:23:52;;;;;;;;;4.20;3.20;;;;;18.25;52.13;97567.56;6131692;28;96186;-67
2022/09/29 09:27:03;;;;;;;;;4.00;3.00;;;;;18.54;51.23;97560.72;6180991;28;96933;-68
2022/09/29 09:30:14;;;;;;;;;3.00;3.00;;;;;18.71;49.00;97562.81;6163070;28;96833;-68
2022/09/29 09:33:26;;;;;;;;;3.00;3.00;;;;;18.86;49.53;97558.94;6175076;28;96861;-70
2022/09/29 09:36:37;;;;;;;;;2.40;2.40;;;;;19.10;48.46;97555.94;6163278;28;96340;-68
2022/09/29 09:39:48;;;;;;;;;2.00;2.00;;;;;18.96;47.27;97540.38;6146161;28;96432;-67
2022/09/29 09:42:58;;;;;;;;;4.00;3.00;;;;;19.19;46.02;97552.16;6181130;28;96615;-68
2022/09/29 09:46:09;;;;;;;;;5.00;4.25;;;;;19.25;46.35;97555.59;6173443;28;96369;-69
2022/09/29 09:49:19;;;;;;;;;4.75;4.75;;;;;19.37;46.27;97550.34;6163105;28;96329;-69
2022/09/29 09:52:31;;;;;;;;;5.00;3.20;;;;;19.41;46.20;97565.00;6155007;28;98610;-70
2022/09/29 09:55:42;;;;;;;;;4.00;4.00;;;;;19.30;46.23;97567.19;6144735;28;97031;-68
2022/09/29 09:59:07;;;;;;;;;5.00;5.00;;;;;19.49;47.10;97572.50;6163021;28;96263;-68
2022/09/29 10:02:18;;;;;;;;;3.60;3.60;;;;;19.70;47.49;97559.94;6145009;28;96248;-67
2022/09/29 10:05:25;;;;;;;;;3.20;3.00;;;;;20.01;45.71;97568.16;6163177;28;96281;-69
2022/09/29 10:08:37;;;;;;;;;4.00;3.40;;;;;20.13;45.46;97573.84;6146660;28;98371;-70
2022/09/29 10:11:41;;;;;;;;;5.00;4.75;;;;;20.24;44.39;97572.44;6129312;28;96721;-69
2022/09/29 10:14:51;;;;;;;;;5.20;5.00;;;;;20.22;44.94;97560.19;6166596;28;96688;-69
2022/09/29 10:18:03;;;;;;;;;3.75;3.75;;;;;20.37;45.52;97570.75;6164947;28;97783;-69
2022/09/29 10:21:21;;;;;;;;;3.00;2.40;;;;;20.19;42.97;97572.56;6149276;28;96688;-69
2022/09/29 10:24:29;;;;;;;;;2.00;2.00;;;;;20.12;43.49;97576.88;6132840;28;96719;-69
2022/09/29 10:27:33;;;;;;;;;4.00;4.00;;;;;20.10;43.88;97584.59;6149175;28;98356;-68
2022/09/29 10:30:36;;;;;;;;;3.00;3.00;;;;;20.07;43.64;97579.75;6149303;28;96861;-70
2022/09/29 10:33:47;;;;;;;;;4.00;4.00;;;;;19.98;44.29;97570.72;6148770;28;96835;-70
2022/09/29 10:36:53;;;;;;;;;4.00;3.00;;;;;20.01;44.76;97584.56;6149197;28;96843;-69
2022/09/29 10:40:13;;;;;;;;;3.50;3.00;;;;;19.95;44.12;97594.00;6148936;28;97180;-70
2022/09/29 10:43:25;;;;;;;;;4.00;3.00;;;;;19.87;44.40;97592.06;6149078;28;96487;-68
2022/09/29 10:46:49;;;;;;;;;3.00;3.00;;;;;19.78;44.78;97589.28;6166622;28;96420;-68
2022/09/29 10:50:13;;;;;;;;;3.00;3.00;;;;;19.74;44.91;97590.22;6148669;28;96676;-70
2022/09/29 10:53:30;;;;;;;;;3.00;3.00;;;;;19.65;44.97;97581.94;6165347;28;96385;-69
2022/09/29 10:56:36;;;;;;;;;3.40;3.40;;;;;19.62;44.39;97590.75;6140885;28;96715;-69
2022/09/29 10:59:47;;;;;;;;;2.60;2.60;;;;;19.57;44.28;97588.16;6140475;28;96675;-70
2022/09/29 11:02:51;;;;;;;;;3.00;3.00;;;;;19.58;43.87;97594.44;6164005;28;96446;-69
2022/09/29 11:05:59;;;;;;;;;3.00;3.00;;;;;19.56;44.33;97611.13;6163910;28;96480;-69
2022/09/29 11:09:05;;;;;;;;;3.00;3.00;;;;;19.49;43.54;97605.31;6164046;28;96947;-69
2022/09/29 11:12:32;;;;;;;;;2.40;2.40;;;;;19.39;44.40;97608.25;6145677;28;96727;-69
2022/09/29 11:15:40;;;;;;;;;2.00;2.00;;;;;19.33;44.80;97612.22;6146414;28;96575;-69
2022/09/29 11:18:46;;;;;;;;;3.00;3.00;;;;;19.17;43.75;97608.22;6140405;28;98368;-69
2022/09/29 11:22:37;;;;;;;;;3.00;3.00;;;;;18.86;44.38;97614.34;6165324;28;96638;-68
2022/09/29 11:25:56;;;;;;;;;3.00;3.00;;;;;18.83;44.69;97614.97;6165065;28;96342;-70
2022/09/29 11:29:20;;;;;;;;;4.40;4.00;;;;;18.57;45.33;97617.41;6148039;28;96669;-69
2022/09/29 11:32:39;;;;;;;;;3.00;3.00;;;;;18.38;46.00;97615.88;6165250;28;96880;-68
2022/09/29 11:35:51;;;;;;;;;4.00;4.00;;;;;18.48;46.31;97616.47;6158260;28;96269;-67
2022/09/29 11:39:12;;;;;;;;;2.80;2.80;;;;;18.56;46.88;97623.19;6162435;28;96326;-68
2022/09/29 11:42:33;;;;;;;;;4.00;3.40;;;;;18.41;47.16;97618.00;6161666;28;96848;-68
2022/09/29 11:45:48;;;;;;;;;4.00;4.00;;;;;18.33;46.78;97619.50;6166159;28;96453;-68
2022/09/29 11:49:23;;;;;;;;;4.60;4.00;;;;;18.38;47.03;97626.78;6169710;28;96134;-68
2022/09/29 11:52:42;;;;;;;;;4.25;4.00;;;;;18.32;47.04;97614.38;6144804;28;96362;-68
2022/09/29 11:56:11;;;;;;;;;4.00;4.00;;;;;18.32;46.67;97622.56;6165095;28;96219;-68
2022/09/29 11:59:33;;;;;;;;;2.50;2.50;;;;;18.14;46.07;97637.88;6153322;28;96370;-68
2022/09/29 12:03:11;;;;;;;;;2.80;2.80;;;;;18.08;46.12;97628.19;6165157;28;96341;-68
2022/09/29 12:06:50;;;;;;;;;2.60;2.60;;;;;18.13;46.13;97619.91;6152751;28;96361;-69
2022/09/29 12:10:24;;;;;;;;;2.00;2.00;;;;;18.26;45.85;97618.28;6136185;28;96706;-67
2022/09/29 12:13:41;;;;;;;;;2.40;2.40;;;;;18.27;45.58;97618.00;6163144;28;96807;-68
2022/09/29 12:16:52;;;;;;;;;2.00;2.00;;;;;18.38;45.21;97629.50;6164603;28;96753;-67
2022/09/29 12:20:02;;;;;;;;;3.00;3.00;;;;;18.25;44.91;97628.41;6152491;28;96455;-69
2022/09/29 12:23:11;;;;;;;;;2.25;2.25;;;;;18.30;45.01;97622.03;6164485;28;96219;-69
2022/09/29 12:26:19;;;;;;;;;3.00;3.00;;;;;18.37;45.85;97628.72;6164407;28;98482;-67
2022/09/29 12:29:33;;;;;;;;;2.00;2.00;;;;;18.45;46.25;97636.19;6146496;28;98312;-68
2022/09/29 12:32:42;;;;;;;;;2.00;2.00;;;;;18.36;45.96;97629.03;6146639;28;96984;-68
2022/09/29 12:35:57;;;;;;;;;2.00;2.00;;;;;18.44;46.88;97648.22;6155868;28;96467;-69
2022/09/29 12:39:10;;;;;;;;;3.00;2.20;;;;;18.30;46.76;97627.50;6174164;28;96419;-70
2022/09/29 12:42:27;;;;;;;;;2.20;2.00;;;;;18.35;46.27;97639.13;6159459;28;97234;-70
2022/09/29 12:45:37;;;;;;;;;4.00;4.00;;;;;18.36;46.57;97634.47;6166967;28;98353;-67
2022/09/29 12:48:52;;;;;;;;;4.00;3.00;;;;;18.07;48.09;97642.94;6180608;28;96801;-68
2022/09/29 12:51:57;;;;;;;;;3.00;3.00;;;;;18.08;48.65;97639.88;6182902;28;96710;-68
2022/09/29 12:55:05;;;;;;;;;4.00;3.60;;;;;17.92;48.49;97646.72;6151594;28;97825;-68
2022/09/29 12:58:15;;;;;;;;;3.00;3.00;;;;;18.01;49.04;97639.47;6184607;28;96293;-68
2022/09/29 13:01:26;;;;;;;;;2.00;2.00;;;;;17.88;49.33;97647.63;6134243;28;98608;-68
2022/09/29 13:05:07;;;;;;;;;4.00;4.00;;;;;18.08;48.07;97653.50;6176544;28;96427;-68
2022/09/29 13:08:34;;;;;;;;;4.00;4.00;;;;;17.98;48.66;97648.28;6133160;28;98438;-68
2022/09/29 13:11:57;;;;;;;;;4.00;4.00;;;;;18.08;49.06;97656.25;6179796;28;96441;-67
2022/09/29 13:15:27;;;;;;;;;4.00;4.00;;;;;18.25;48.75;97655.69;6180149;28;96458;-68
2022/09/29 13:18:49;;;;;;;;;3.40;3.40;;;;;18.19;48.42;97659.59;6159034;28;97304;-67
2022/09/29 13:22:24;;;;;;;;;3.00;3.00;;;;;18.32;47.86;97655.28;6180217;28;96915;-67
2022/09/29 13:25:39;;;;;;;;;4.00;4.00;;;;;18.46;48.41;97656.94;6164125;28;96882;-69
2022/09/29 13:28:46;;;;;;;;;5.00;5.00;;;;;18.33;48.74;97644.06;6165704;28;96774;-67
2022/09/29 13:31:53;;;;;;;;;5.00;5.00;;;;;18.53;47.79;97660.06;6162574;28;96443;-70
2022/09/29 13:35:00;;;;;;;;;3.40;3.40;;;;;18.43;47.38;97652.06;6182372;28;96567;-69
2022/09/29 13:38:06;;;;;;;;;4.00;4.00;;;;;18.30;47.15;97663.78;6183391;28;96779;-68
2022/09/29 13:41:15;;;;;;;;;5.00;4.60;;;;;18.17;47.73;97670.03;6176953;28;96860;-68
2022/09/29 13:44:24;;;;;;;;;5.00;4.00;;;;;18.24;47.82;97664.97;6180644;28;96560;-68
2022/09/29 13:47:32;;;;;;;;;5.75;5.00;;;;;18.21;47.13;97668.31;6163520;28;96687;-68
2022/09/29 13:50:44;;;;;;;;;4.00;3.20;;;;;18.15;46.83;97662.13;6148818;28;96749;-67
2022/09/29 13:54:07;;;;;;;;;3.50;3.50;;;;;17.73;47.83;97663.13;6168616;28;97087;-68
2022/09/29 13:57:30;;;;;;;;;4.60;3.60;;;;;17.87;47.75;97674.09;6170553;28;96648;-67
2022/09/29 14:00:33;;;;;;;;;4.60;4.60;;;;;17.87;47.88;97665.91;6162911;28;96461;-67
2022/09/29 14:03:39;;;;;;;;;4.25;4.00;;;;;17.92;48.20;97670.47;6163650;28;97050;-69
2022/09/29 14:06:47;;;;;;;;;5.00;4.00;;;;;17.98;48.60;97672.00;6164584;28;96795;-69
2022/09/29 14:09:51;;;;;;;;;5.20;5.20;;;;;18.08;48.73;97671.81;6166108;28;96442;-69
2022/09/29 14:13:02;;;;;;;;;10.00;10.00;;;;;18.12;49.06;97672.84;6158502;28;96926;-69
2022/09/29 14:16:19;;;;;;;;;7.00;6.00;;;;;18.25;48.59;97680.22;6161151;28;96909;-69
2022/09/29 14:19:48;;;;;;;;;6.00;5.00;;;;;18.23;48.22;97679.72;6174283;28;97906;-68
2022/09/29 14:23:03;;;;;;;;;5.00;4.00;;;;;18.20;48.04;97683.06;6165834;28;98091;-68
2022/09/29 14:26:46;;;;;;;;;4.00;4.00;;;;;18.27;48.49;97683.47;6132202;28;97091;-69
2022/09/29 14:29:58;;;;;;;;;4.00;4.00;;;;;18.31;48.57;97683.69;6144413;28;99504;-68
2022/09/29 14:33:08;;;;;;;;;4.00;4.00;;;;;18.33;48.78;97692.34;6181799;28;96482;-68
2022/09/29 14:36:16;;;;;;;;;3.00;3.00;;;;;18.32;48.41;97697.03;6171964;28;98542;-67
2022/09/29 14:39:21;;;;;;;;;4.00;3.75;;;;;18.35;48.80;97710.06;6150363;28;96653;-68
2022/09/29 14:42:31;;;;;;;;;4.00;3.40;;;;;18.42;48.82;97705.00;6142498;28;96472;-68
2022/09/29 14:53:19;;;;;;;;;4.00;4.00;;;;;18.53;48.77;97701.00;6153761;28;97516;-69
2022/09/29 14:56:40;;;;;;;;;4.00;4.00;;;;;18.53;48.62;97700.16;6148532;28;96604;-68
2022/09/29 14:59:59;;;;;;;;;4.00;4.00;;;;;18.56;47.97;97713.25;6159510;28;96849;-66